sensor_id;sensor_type;location;lat;lon;timestamp;P1;durP1;ratioP1;P2;durP2;ratioP2
27031;SDS011;14580;52.918;9.214;2023-03-01T00:01:36;8.67;;;4.63;;
27031;SDS011;14580;52.918;9.214;2023-03-01T00:04:04;5.17;;;4.37;;
27031;SDS011;14580;52.918;9.214;2023-03-01T00:06:31;6.80;;;4.27;;
27031;SDS011;14580;52.918;9.214;2023-03-01T00:08:58;5.50;;;4.30;;
27031;SDS011;14580;52.918;9.214;2023-03-01T00:11:26;5.37;;;4.33;;
27031;SDS011;14580;52.918;9.214;2023-03-01T00:13:56;7.10;;;4.30;;
27031;SDS011;14580;52.918;9.214;2023-03-01T00:16:35;7.10;;;4.27;;
27031;SDS011;14580;52.918;9.214;2023-03-01T00:19:07;7.77;;;3.60;;
27031;SDS011;14580;52.918;9.214;2023-03-01T00:21:40;6.63;;;3.87;;
27031;SDS011;14580;52.918;9.214;2023-03-01T00:24:08;5.07;;;3.33;;
27031;SDS011;14580;52.918;9.214;2023-03-01T00:26:35;6.03;;;4.60;;
27031;SDS011;14580;52.918;9.214;2023-03-01T00:29:08;6.93;;;4.77;;
27031;SDS011;14580;52.918;9.214;2023-03-01T00:31:37;5.87;;;4.00;;
27031;SDS011;14580;52.918;9.214;2023-03-01T00:34:05;5.30;;;3.70;;
27031;SDS011;14580;52.918;9.214;2023-03-01T00:50:01;6.90;;;4.07;;
27031;SDS011;14580;52.918;9.214;2023-03-01T00:52:31;7.13;;;3.87;;
27031;SDS011;14580;52.918;9.214;2023-03-01T00:54:57;8.03;;;4.23;;
27031;SDS011;14580;52.918;9.214;2023-03-01T00:57:24;5.97;;;3.83;;
27031;SDS011;14580;52.918;9.214;2023-03-01T00:59:51;4.37;;;3.43;;
27031;SDS011;14580;52.918;9.214;2023-03-01T01:02:17;6.27;;;4.10;;
27031;SDS011;14580;52.918;9.214;2023-03-01T01:04:45;6.17;;;3.90;;
27031;SDS011;14580;52.918;9.214;2023-03-01T01:07:13;5.73;;;3.80;;
27031;SDS011;14580;52.918;9.214;2023-03-01T01:09:40;6.43;;;3.90;;
27031;SDS011;14580;52.918;9.214;2023-03-01T01:12:07;4.67;;;3.27;;
27031;SDS011;14580;52.918;9.214;2023-03-01T01:14:35;7.37;;;3.73;;
27031;SDS011;14580;52.918;9.214;2023-03-01T01:17:02;6.60;;;4.10;;
27031;SDS011;14580;52.918;9.214;2023-03-01T01:19:30;4.87;;;3.90;;
27031;SDS011;14580;52.918;9.214;2023-03-01T01:21:57;9.57;;;4.43;;
27031;SDS011;14580;52.918;9.214;2023-03-01T01:24:25;5.13;;;3.60;;
27031;SDS011;14580;52.918;9.214;2023-03-01T01:26:52;9.57;;;4.27;;
27031;SDS011;14580;52.918;9.214;2023-03-01T01:29:19;5.90;;;3.93;;
27031;SDS011;14580;52.918;9.214;2023-03-01T01:31:47;5.57;;;3.37;;
27031;SDS011;14580;52.918;9.214;2023-03-01T01:34:19;5.00;;;3.47;;
27031;SDS011;14580;52.918;9.214;2023-03-01T01:36:48;9.10;;;4.23;;
27031;SDS011;14580;52.918;9.214;2023-03-01T01:39:19;4.67;;;3.70;;
27031;SDS011;14580;52.918;9.214;2023-03-01T01:41:48;5.97;;;3.37;;
27031;SDS011;14580;52.918;9.214;2023-03-01T01:44:25;5.03;;;3.93;;
27031;SDS011;14580;52.918;9.214;2023-03-01T01:46:55;4.43;;;3.43;;
27031;SDS011;14580;52.918;9.214;2023-03-01T01:52:11;4.73;;;3.57;;
27031;SDS011;14580;52.918;9.214;2023-03-01T01:54:47;4.70;;;3.53;;
27031;SDS011;14580;52.918;9.214;2023-03-01T01:57:23;5.67;;;3.57;;
27031;SDS011;14580;52.918;9.214;2023-03-01T02:00:20;5.33;;;4.00;;
27031;SDS011;14580;52.918;9.214;2023-03-01T02:02:50;5.20;;;3.70;;
27031;SDS011;14580;52.918;9.214;2023-03-01T02:05:46;5.30;;;3.80;;
27031;SDS011;14580;52.918;9.214;2023-03-01T02:08:18;5.93;;;3.43;;
27031;SDS011;14580;52.918;9.214;2023-03-01T02:10:49;3.77;;;3.30;;
27031;SDS011;14580;52.918;9.214;2023-03-01T02:13:17;3.93;;;3.43;;
27031;SDS011;14580;52.918;9.214;2023-03-01T02:15:43;4.37;;;3.40;;
27031;SDS011;14580;52.918;9.214;2023-03-01T02:18:12;4.80;;;3.63;;
27031;SDS011;14580;52.918;9.214;2023-03-01T02:21:05;5.23;;;3.70;;
27031;SDS011;14580;52.918;9.214;2023-03-01T02:24:26;5.20;;;3.70;;
27031;SDS011;14580;52.918;9.214;2023-03-01T02:27:01;6.33;;;3.60;;
27031;SDS011;14580;52.918;9.214;2023-03-01T02:29:28;5.27;;;3.60;;
27031;SDS011;14580;52.918;9.214;2023-03-01T02:31:55;7.07;;;3.50;;
27031;SDS011;14580;52.918;9.214;2023-03-01T02:34:27;4.83;;;3.70;;
27031;SDS011;14580;52.918;9.214;2023-03-01T02:37:10;4.47;;;3.67;;
27031;SDS011;14580;52.918;9.214;2023-03-01T02:39:48;4.53;;;3.80;;
27031;SDS011;14580;52.918;9.214;2023-03-01T02:42:50;5.67;;;4.20;;
27031;SDS011;14580;52.918;9.214;2023-03-01T02:45:24;5.83;;;4.47;;
27031;SDS011;14580;52.918;9.214;2023-03-01T02:47:55;7.50;;;4.33;;
27031;SDS011;14580;52.918;9.214;2023-03-01T02:52:57;5.17;;;4.07;;
27031;SDS011;14580;52.918;9.214;2023-03-01T02:55:34;6.63;;;4.50;;
27031;SDS011;14580;52.918;9.214;2023-03-01T02:58:02;8.00;;;4.90;;
27031;SDS011;14580;52.918;9.214;2023-03-01T03:00:36;6.13;;;4.23;;
27031;SDS011;14580;52.918;9.214;2023-03-01T03:03:11;7.57;;;4.70;;
27031;SDS011;14580;52.918;9.214;2023-03-01T03:05:40;5.50;;;4.60;;
27031;SDS011;14580;52.918;9.214;2023-03-01T03:08:07;9.77;;;4.80;;
27031;SDS011;14580;52.918;9.214;2023-03-01T03:10:35;6.17;;;4.50;;
27031;SDS011;14580;52.918;9.214;2023-03-01T03:13:11;8.37;;;5.30;;
27031;SDS011;14580;52.918;9.214;2023-03-01T03:15:41;8.27;;;5.43;;
27031;SDS011;14580;52.918;9.214;2023-03-01T03:18:11;7.17;;;5.07;;
27031;SDS011;14580;52.918;9.214;2023-03-01T03:20:41;8.00;;;5.17;;
27031;SDS011;14580;52.918;9.214;2023-03-01T03:23:10;7.97;;;4.80;;
27031;SDS011;14580;52.918;9.214;2023-03-01T03:25:36;6.87;;;4.60;;
27031;SDS011;14580;52.918;9.214;2023-03-01T03:28:05;5.50;;;4.57;;
27031;SDS011;14580;52.918;9.214;2023-03-01T03:30:36;7.43;;;5.10;;
27031;SDS011;14580;52.918;9.214;2023-03-01T03:33:06;6.80;;;4.90;;
27031;SDS011;14580;52.918;9.214;2023-03-01T03:35:38;7.20;;;5.50;;
27031;SDS011;14580;52.918;9.214;2023-03-01T03:38:10;7.83;;;4.27;;
27031;SDS011;14580;52.918;9.214;2023-03-01T03:40:46;6.83;;;4.53;;
27031;SDS011;14580;52.918;9.214;2023-03-01T03:43:39;7.07;;;4.37;;
27031;SDS011;14580;52.918;9.214;2023-03-01T03:46:08;6.27;;;4.10;;
27031;SDS011;14580;52.918;9.214;2023-03-01T03:48:38;7.23;;;4.67;;
27031;SDS011;14580;52.918;9.214;2023-03-01T03:51:09;6.93;;;4.73;;
27031;SDS011;14580;52.918;9.214;2023-03-01T03:53:41;6.47;;;4.13;;
27031;SDS011;14580;52.918;9.214;2023-03-01T03:56:08;5.63;;;4.63;;
27031;SDS011;14580;52.918;9.214;2023-03-01T03:58:35;6.47;;;4.70;;
27031;SDS011;14580;52.918;9.214;2023-03-01T04:01:03;5.80;;;4.20;;
27031;SDS011;14580;52.918;9.214;2023-03-01T04:03:31;6.87;;;4.33;;
27031;SDS011;14580;52.918;9.214;2023-03-01T04:06:00;5.93;;;4.27;;
27031;SDS011;14580;52.918;9.214;2023-03-01T04:08:28;6.63;;;4.10;;
27031;SDS011;14580;52.918;9.214;2023-03-01T04:11:01;6.77;;;4.30;;
27031;SDS011;14580;52.918;9.214;2023-03-01T04:13:49;4.67;;;3.70;;
27031;SDS011;14580;52.918;9.214;2023-03-01T04:16:17;6.20;;;4.30;;
27031;SDS011;14580;52.918;9.214;2023-03-01T04:18:44;6.00;;;3.80;;
27031;SDS011;14580;52.918;9.214;2023-03-01T04:21:11;6.03;;;4.30;;
27031;SDS011;14580;52.918;9.214;2023-03-01T04:23:39;5.67;;;3.50;;
27031;SDS011;14580;52.918;9.214;2023-03-01T04:26:06;8.07;;;3.83;;
27031;SDS011;14580;52.918;9.214;2023-03-01T04:28:35;7.23;;;3.27;;
27031;SDS011;14580;52.918;9.214;2023-03-01T04:31:12;6.27;;;3.87;;
27031;SDS011;14580;52.918;9.214;2023-03-01T04:33:53;4.90;;;3.77;;
27031;SDS011;14580;52.918;9.214;2023-03-01T04:36:22;4.37;;;3.30;;
27031;SDS011;14580;52.918;9.214;2023-03-01T04:38:51;6.63;;;4.17;;
27031;SDS011;14580;52.918;9.214;2023-03-01T04:41:19;6.43;;;3.80;;
27031;SDS011;14580;52.918;9.214;2023-03-01T04:43:48;4.40;;;3.57;;
27031;SDS011;14580;52.918;9.214;2023-03-01T04:46:16;5.20;;;3.77;;
27031;SDS011;14580;52.918;9.214;2023-03-01T04:48:46;4.50;;;3.90;;
27031;SDS011;14580;52.918;9.214;2023-03-01T04:51:14;5.13;;;3.90;;
27031;SDS011;14580;52.918;9.214;2023-03-01T04:53:41;5.63;;;3.57;;
27031;SDS011;14580;52.918;9.214;2023-03-01T04:56:09;4.50;;;3.60;;
27031;SDS011;14580;52.918;9.214;2023-03-01T04:58:40;5.33;;;3.63;;
27031;SDS011;14580;52.918;9.214;2023-03-01T05:01:26;6.20;;;4.10;;
27031;SDS011;14580;52.918;9.214;2023-03-01T05:05:03;6.73;;;5.00;;
27031;SDS011;14580;52.918;9.214;2023-03-01T05:12:03;8.63;;;6.17;;
27031;SDS011;14580;52.918;9.214;2023-03-01T05:19:09;10.53;;;6.97;;
27031;SDS011;14580;52.918;9.214;2023-03-01T05:21:40;14.87;;;8.27;;
27031;SDS011;14580;52.918;9.214;2023-03-01T05:24:27;13.27;;;7.53;;
27031;SDS011;14580;52.918;9.214;2023-03-01T05:26:56;17.73;;;9.60;;
27031;SDS011;14580;52.918;9.214;2023-03-01T05:29:24;14.77;;;8.17;;
27031;SDS011;14580;52.918;9.214;2023-03-01T05:31:56;12.57;;;8.07;;
27031;SDS011;14580;52.918;9.214;2023-03-01T05:34:29;12.23;;;7.43;;
27031;SDS011;14580;52.918;9.214;2023-03-01T05:37:00;14.97;;;8.60;;
27031;SDS011;14580;52.918;9.214;2023-03-01T05:39:28;16.23;;;8.53;;
27031;SDS011;14580;52.918;9.214;2023-03-01T05:41:57;12.80;;;7.90;;
27031;SDS011;14580;52.918;9.214;2023-03-01T05:44:26;15.50;;;7.63;;
27031;SDS011;14580;52.918;9.214;2023-03-01T05:46:54;11.03;;;6.67;;
27031;SDS011;14580;52.918;9.214;2023-03-01T05:49:22;9.70;;;6.23;;
27031;SDS011;14580;52.918;9.214;2023-03-01T05:51:50;8.27;;;5.77;;
27031;SDS011;14580;52.918;9.214;2023-03-01T05:54:19;7.90;;;5.13;;
27031;SDS011;14580;52.918;9.214;2023-03-01T05:56:46;9.47;;;5.60;;
27031;SDS011;14580;52.918;9.214;2023-03-01T05:59:13;7.63;;;5.47;;
27031;SDS011;14580;52.918;9.214;2023-03-01T06:01:41;7.83;;;5.77;;
27031;SDS011;14580;52.918;9.214;2023-03-01T06:04:08;9.10;;;5.83;;
27031;SDS011;14580;52.918;9.214;2023-03-01T06:06:37;11.43;;;5.80;;
27031;SDS011;14580;52.918;9.214;2023-03-01T06:09:05;9.83;;;6.23;;
27031;SDS011;14580;52.918;9.214;2023-03-01T06:11:34;12.30;;;5.93;;
27031;SDS011;14580;52.918;9.214;2023-03-01T06:14:02;9.00;;;6.80;;
27031;SDS011;14580;52.918;9.214;2023-03-01T06:16:29;10.10;;;6.60;;
27031;SDS011;14580;52.918;9.214;2023-03-01T06:18:56;9.50;;;5.63;;
27031;SDS011;14580;52.918;9.214;2023-03-01T06:21:22;8.03;;;5.77;;
27031;SDS011;14580;52.918;9.214;2023-03-01T06:23:48;8.60;;;6.00;;
27031;SDS011;14580;52.918;9.214;2023-03-01T06:26:15;6.30;;;4.90;;
27031;SDS011;14580;52.918;9.214;2023-03-01T06:28:42;8.33;;;4.93;;
27031;SDS011;14580;52.918;9.214;2023-03-01T06:31:11;7.73;;;5.90;;
27031;SDS011;14580;52.918;9.214;2023-03-01T06:33:37;10.47;;;6.77;;
27031;SDS011;14580;52.918;9.214;2023-03-01T06:36:04;8.93;;;6.33;;
27031;SDS011;14580;52.918;9.214;2023-03-01T06:38:31;7.87;;;6.10;;
27031;SDS011;14580;52.918;9.214;2023-03-01T06:40:57;8.93;;;6.13;;
27031;SDS011;14580;52.918;9.214;2023-03-01T06:43:24;11.03;;;5.00;;
27031;SDS011;14580;52.918;9.214;2023-03-01T06:45:51;7.07;;;4.03;;
27031;SDS011;14580;52.918;9.214;2023-03-01T06:48:17;4.97;;;4.20;;
27031;SDS011;14580;52.918;9.214;2023-03-01T06:50:45;5.97;;;3.73;;
27031;SDS011;14580;52.918;9.214;2023-03-01T06:53:13;5.47;;;4.20;;
27031;SDS011;14580;52.918;9.214;2023-03-01T06:55:41;4.33;;;3.93;;
27031;SDS011;14580;52.918;9.214;2023-03-01T06:58:08;5.03;;;4.07;;
27031;SDS011;14580;52.918;9.214;2023-03-01T07:00:36;7.07;;;4.00;;
27031;SDS011;14580;52.918;9.214;2023-03-01T07:03:05;4.43;;;4.03;;
27031;SDS011;14580;52.918;9.214;2023-03-01T07:05:35;7.13;;;4.67;;
27031;SDS011;14580;52.918;9.214;2023-03-01T07:08:02;5.50;;;4.27;;
27031;SDS011;14580;52.918;9.214;2023-03-01T07:10:29;5.73;;;4.23;;
27031;SDS011;14580;52.918;9.214;2023-03-01T07:12:58;6.60;;;4.60;;
27031;SDS011;14580;52.918;9.214;2023-03-01T07:15:31;4.03;;;3.63;;
27031;SDS011;14580;52.918;9.214;2023-03-01T07:17:58;7.17;;;4.50;;
27031;SDS011;14580;52.918;9.214;2023-03-01T07:20:25;5.73;;;4.40;;
27031;SDS011;14580;52.918;9.214;2023-03-01T07:22:52;5.93;;;4.47;;
27031;SDS011;14580;52.918;9.214;2023-03-01T07:25:23;7.40;;;4.07;;
27031;SDS011;14580;52.918;9.214;2023-03-01T07:27:53;7.37;;;4.17;;
27031;SDS011;14580;52.918;9.214;2023-03-01T07:30:20;7.33;;;4.23;;
27031;SDS011;14580;52.918;9.214;2023-03-01T07:32:47;6.17;;;4.43;;
27031;SDS011;14580;52.918;9.214;2023-03-01T07:35:14;8.10;;;5.07;;
27031;SDS011;14580;52.918;9.214;2023-03-01T07:37:41;9.23;;;5.20;;
27031;SDS011;14580;52.918;9.214;2023-03-01T07:40:08;8.80;;;5.03;;
27031;SDS011;14580;52.918;9.214;2023-03-01T07:42:36;5.20;;;3.90;;
27031;SDS011;14580;52.918;9.214;2023-03-01T07:45:03;7.40;;;4.03;;
27031;SDS011;14580;52.918;9.214;2023-03-01T07:47:31;6.73;;;4.00;;
27031;SDS011;14580;52.918;9.214;2023-03-01T07:49:57;5.57;;;4.50;;
27031;SDS011;14580;52.918;9.214;2023-03-01T07:52:24;5.70;;;4.40;;
27031;SDS011;14580;52.918;9.214;2023-03-01T07:54:51;8.13;;;4.77;;
27031;SDS011;14580;52.918;9.214;2023-03-01T07:57:17;5.93;;;4.30;;
27031;SDS011;14580;52.918;9.214;2023-03-01T07:59:44;5.77;;;4.40;;
27031;SDS011;14580;52.918;9.214;2023-03-01T08:02:11;5.77;;;4.97;;
27031;SDS011;14580;52.918;9.214;2023-03-01T08:04:37;3.37;;;2.77;;
27031;SDS011;14580;52.918;9.214;2023-03-01T08:07:04;4.13;;;3.27;;
27031;SDS011;14580;52.918;9.214;2023-03-01T08:09:33;8.57;;;3.87;;
27031;SDS011;14580;52.918;9.214;2023-03-01T08:12:01;6.13;;;4.27;;
27031;SDS011;14580;52.918;9.214;2023-03-01T08:14:29;5.33;;;3.73;;
27031;SDS011;14580;52.918;9.214;2023-03-01T08:16:59;8.63;;;4.00;;
27031;SDS011;14580;52.918;9.214;2023-03-01T08:19:27;5.27;;;3.57;;
27031;SDS011;14580;52.918;9.214;2023-03-01T08:21:54;5.60;;;4.23;;
27031;SDS011;14580;52.918;9.214;2023-03-01T08:24:28;5.67;;;4.57;;
27031;SDS011;14580;52.918;9.214;2023-03-01T08:26:55;9.17;;;5.43;;
27031;SDS011;14580;52.918;9.214;2023-03-01T08:29:23;9.27;;;4.90;;
27031;SDS011;14580;52.918;9.214;2023-03-01T08:31:50;6.93;;;4.47;;
27031;SDS011;14580;52.918;9.214;2023-03-01T08:34:17;5.90;;;4.33;;
27031;SDS011;14580;52.918;9.214;2023-03-01T08:36:45;7.27;;;4.27;;
27031;SDS011;14580;52.918;9.214;2023-03-01T08:39:36;8.70;;;5.47;;
27031;SDS011;14580;52.918;9.214;2023-03-01T08:48:51;8.33;;;4.33;;
27031;SDS011;14580;52.918;9.214;2023-03-01T08:51:19;4.43;;;3.57;;
27031;SDS011;14580;52.918;9.214;2023-03-01T08:53:47;5.37;;;3.67;;
27031;SDS011;14580;52.918;9.214;2023-03-01T08:56:14;4.00;;;3.50;;
27031;SDS011;14580;52.918;9.214;2023-03-01T08:58:47;5.17;;;3.37;;
27031;SDS011;14580;52.918;9.214;2023-03-01T09:01:16;6.27;;;4.00;;
27031;SDS011;14580;52.918;9.214;2023-03-01T09:03:45;6.67;;;3.63;;
27031;SDS011;14580;52.918;9.214;2023-03-01T09:06:12;5.20;;;3.37;;
27031;SDS011;14580;52.918;9.214;2023-03-01T09:08:40;6.10;;;3.70;;
27031;SDS011;14580;52.918;9.214;2023-03-01T09:11:10;5.03;;;3.97;;
27031;SDS011;14580;52.918;9.214;2023-03-01T09:13:41;7.43;;;3.90;;
27031;SDS011;14580;52.918;9.214;2023-03-01T09:16:09;7.37;;;3.33;;
27031;SDS011;14580;52.918;9.214;2023-03-01T09:18:44;5.83;;;3.00;;
27031;SDS011;14580;52.918;9.214;2023-03-01T09:21:21;4.30;;;3.40;;
27031;SDS011;14580;52.918;9.214;2023-03-01T09:23:50;5.03;;;3.70;;
27031;SDS011;14580;52.918;9.214;2023-03-01T09:26:20;5.17;;;3.47;;
27031;SDS011;14580;52.918;9.214;2023-03-01T09:28:49;4.87;;;3.23;;
27031;SDS011;14580;52.918;9.214;2023-03-01T09:31:18;5.47;;;3.43;;
27031;SDS011;14580;52.918;9.214;2023-03-01T09:33:48;5.70;;;3.33;;
27031;SDS011;14580;52.918;9.214;2023-03-01T09:36:18;5.07;;;3.10;;
27031;SDS011;14580;52.918;9.214;2023-03-01T09:38:47;3.90;;;3.03;;
27031;SDS011;14580;52.918;9.214;2023-03-01T09:41:24;5.63;;;3.23;;
27031;SDS011;14580;52.918;9.214;2023-03-01T09:44:18;4.30;;;2.90;;
27031;SDS011;14580;52.918;9.214;2023-03-01T09:47:02;4.50;;;2.80;;
27031;SDS011;14580;52.918;9.214;2023-03-01T09:49:39;3.27;;;2.60;;
27031;SDS011;14580;52.918;9.214;2023-03-01T09:52:30;3.53;;;2.47;;
27031;SDS011;14580;52.918;9.214;2023-03-01T09:55:12;2.57;;;2.33;;
27031;SDS011;14580;52.918;9.214;2023-03-01T09:57:50;3.33;;;2.63;;
27031;SDS011;14580;52.918;9.214;2023-03-01T10:08:53;4.60;;;3.07;;
27031;SDS011;14580;52.918;9.214;2023-03-01T10:11:27;3.33;;;2.57;;
27031;SDS011;14580;52.918;9.214;2023-03-01T10:14:03;3.93;;;2.80;;
27031;SDS011;14580;52.918;9.214;2023-03-01T10:19:58;6.47;;;3.07;;
27031;SDS011;14580;52.918;9.214;2023-03-01T10:23:08;4.80;;;2.73;;
27031;SDS011;14580;52.918;9.214;2023-03-01T10:28:28;4.27;;;2.80;;
27031;SDS011;14580;52.918;9.214;2023-03-01T10:31:26;5.33;;;2.57;;
27031;SDS011;14580;52.918;9.214;2023-03-01T10:37:09;6.10;;;3.33;;
27031;SDS011;14580;52.918;9.214;2023-03-01T10:40:04;5.77;;;3.43;;
27031;SDS011;14580;52.918;9.214;2023-03-01T10:42:35;4.83;;;3.27;;
27031;SDS011;14580;52.918;9.214;2023-03-01T10:45:15;4.40;;;3.17;;
27031;SDS011;14580;52.918;9.214;2023-03-01T10:53:26;4.17;;;2.97;;
27031;SDS011;14580;52.918;9.214;2023-03-01T10:56:07;4.80;;;3.10;;
27031;SDS011;14580;52.918;9.214;2023-03-01T10:58:36;4.00;;;2.97;;
27031;SDS011;14580;52.918;9.214;2023-03-01T11:01:06;5.97;;;3.10;;
27031;SDS011;14580;52.918;9.214;2023-03-01T11:06:33;4.77;;;3.53;;
27031;SDS011;14580;52.918;9.214;2023-03-01T11:09:15;5.73;;;3.80;;
27031;SDS011;14580;52.918;9.214;2023-03-01T11:11:45;7.50;;;3.73;;
27031;SDS011;14580;52.918;9.214;2023-03-01T11:14:21;5.63;;;3.93;;
27031;SDS011;14580;52.918;9.214;2023-03-01T11:19:31;8.37;;;4.43;;
27031;SDS011;14580;52.918;9.214;2023-03-01T11:22:03;6.53;;;4.53;;
27031;SDS011;14580;52.918;9.214;2023-03-01T11:24:52;7.17;;;4.23;;
27031;SDS011;14580;52.918;9.214;2023-03-01T11:27:24;6.53;;;4.90;;
27031;SDS011;14580;52.918;9.214;2023-03-01T11:35:35;7.10;;;3.93;;
27031;SDS011;14580;52.918;9.214;2023-03-01T11:38:30;6.57;;;4.63;;
27031;SDS011;14580;52.918;9.214;2023-03-01T11:43:59;6.90;;;5.13;;
27031;SDS011;14580;52.918;9.214;2023-03-01T11:46:43;7.30;;;4.90;;
27031;SDS011;14580;52.918;9.214;2023-03-01T11:55:44;9.27;;;5.50;;
27031;SDS011;14580;52.918;9.214;2023-03-01T12:00:41;10.10;;;6.07;;
27031;SDS011;14580;52.918;9.214;2023-03-01T12:03:48;8.53;;;5.80;;
27031;SDS011;14580;52.918;9.214;2023-03-01T12:30:25;9.57;;;6.20;;
27031;SDS011;14580;52.918;9.214;2023-03-01T12:33:15;8.10;;;5.77;;
27031;SDS011;14580;52.918;9.214;2023-03-01T12:41:46;6.43;;;4.93;;
27031;SDS011;14580;52.918;9.214;2023-03-01T12:44:51;7.10;;;5.07;;
27031;SDS011;14580;52.918;9.214;2023-03-01T12:50:53;8.40;;;4.60;;
27031;SDS011;14580;52.918;9.214;2023-03-01T12:53:32;6.50;;;5.40;;
27031;SDS011;14580;52.918;9.214;2023-03-01T12:56:10;9.83;;;5.43;;
27031;SDS011;14580;52.918;9.214;2023-03-01T12:58:44;6.97;;;4.93;;
27031;SDS011;14580;52.918;9.214;2023-03-01T13:01:42;7.50;;;4.87;;
27031;SDS011;14580;52.918;9.214;2023-03-01T13:10:27;7.73;;;4.77;;
27031;SDS011;14580;52.918;9.214;2023-03-01T13:13:13;9.57;;;5.50;;
27031;SDS011;14580;52.918;9.214;2023-03-01T13:15:46;8.20;;;5.13;;
27031;SDS011;14580;52.918;9.214;2023-03-01T13:28:47;8.33;;;6.07;;
27031;SDS011;14580;52.918;9.214;2023-03-01T13:33:49;8.07;;;5.77;;
27031;SDS011;14580;52.918;9.214;2023-03-01T13:39:05;7.07;;;5.47;;
27031;SDS011;14580;52.918;9.214;2023-03-01T13:42:03;8.70;;;6.70;;
27031;SDS011;14580;52.918;9.214;2023-03-01T13:45:21;7.87;;;5.93;;
27031;SDS011;14580;52.918;9.214;2023-03-01T13:48:08;10.10;;;5.87;;
27031;SDS011;14580;52.918;9.214;2023-03-01T13:50:59;10.23;;;6.60;;
27031;SDS011;14580;52.918;9.214;2023-03-01T13:53:31;8.97;;;6.97;;
27031;SDS011;14580;52.918;9.214;2023-03-01T13:58:54;12.17;;;6.97;;
27031;SDS011;14580;52.918;9.214;2023-03-01T14:01:40;10.07;;;6.73;;
27031;SDS011;14580;52.918;9.214;2023-03-01T14:04:21;10.47;;;6.70;;
27031;SDS011;14580;52.918;9.214;2023-03-01T14:07:12;10.27;;;6.53;;
27031;SDS011;14580;52.918;9.214;2023-03-01T14:09:52;7.73;;;5.73;;
27031;SDS011;14580;52.918;9.214;2023-03-01T14:15:15;10.03;;;6.67;;
27031;SDS011;14580;52.918;9.214;2023-03-01T14:18:09;9.27;;;6.50;;
27031;SDS011;14580;52.918;9.214;2023-03-01T14:20:52;10.73;;;6.87;;
27031;SDS011;14580;52.918;9.214;2023-03-01T14:23:19;9.60;;;5.87;;
27031;SDS011;14580;52.918;9.214;2023-03-01T14:25:48;8.73;;;5.57;;
27031;SDS011;14580;52.918;9.214;2023-03-01T14:28:27;7.60;;;5.77;;
27031;SDS011;14580;52.918;9.214;2023-03-01T14:31:00;8.10;;;5.53;;
27031;SDS011;14580;52.918;9.214;2023-03-01T14:33:33;9.43;;;5.63;;
27031;SDS011;14580;52.918;9.214;2023-03-01T14:36:03;8.20;;;5.63;;
27031;SDS011;14580;52.918;9.214;2023-03-01T14:38:42;7.80;;;5.63;;
27031;SDS011;14580;52.918;9.214;2023-03-01T14:41:15;7.93;;;5.07;;
27031;SDS011;14580;52.918;9.214;2023-03-01T14:44:03;7.00;;;5.23;;
27031;SDS011;14580;52.918;9.214;2023-03-01T14:46:41;7.40;;;5.33;;
27031;SDS011;14580;52.918;9.214;2023-03-01T14:49:17;9.13;;;5.83;;
27031;SDS011;14580;52.918;9.214;2023-03-01T14:51:51;6.93;;;5.00;;
27031;SDS011;14580;52.918;9.214;2023-03-01T14:54:25;6.17;;;4.63;;
27031;SDS011;14580;52.918;9.214;2023-03-01T14:57:17;6.97;;;5.37;;
27031;SDS011;14580;52.918;9.214;2023-03-01T14:59:50;7.60;;;5.17;;
27031;SDS011;14580;52.918;9.214;2023-03-01T15:02:24;8.83;;;5.77;;
27031;SDS011;14580;52.918;9.214;2023-03-01T15:04:57;8.20;;;4.90;;
27031;SDS011;14580;52.918;9.214;2023-03-01T15:07:33;7.53;;;5.17;;
27031;SDS011;14580;52.918;9.214;2023-03-01T15:10:05;8.67;;;5.67;;
27031;SDS011;14580;52.918;9.214;2023-03-01T15:12:42;8.13;;;5.10;;
27031;SDS011;14580;52.918;9.214;2023-03-01T15:17:55;6.50;;;5.00;;
27031;SDS011;14580;52.918;9.214;2023-03-01T15:20:27;7.07;;;5.03;;
27031;SDS011;14580;52.918;9.214;2023-03-01T15:22:55;6.53;;;5.07;;
27031;SDS011;14580;52.918;9.214;2023-03-01T15:25:27;7.20;;;5.00;;
27031;SDS011;14580;52.918;9.214;2023-03-01T15:27:56;8.13;;;5.33;;
27031;SDS011;14580;52.918;9.214;2023-03-01T15:30:31;6.90;;;4.87;;
27031;SDS011;14580;52.918;9.214;2023-03-01T15:35:52;8.37;;;5.37;;
27031;SDS011;14580;52.918;9.214;2023-03-01T15:41:05;5.97;;;4.50;;
27031;SDS011;14580;52.918;9.214;2023-03-01T15:44:48;6.23;;;4.97;;
27031;SDS011;14580;52.918;9.214;2023-03-01T15:46:55;6.77;;;4.63;;
27031;SDS011;14580;52.918;9.214;2023-03-01T15:49:30;8.30;;;5.03;;
27031;SDS011;14580;52.918;9.214;2023-03-01T15:52:18;6.70;;;4.70;;
27031;SDS011;14580;52.918;9.214;2023-03-01T15:55:06;6.30;;;4.50;;
27031;SDS011;14580;52.918;9.214;2023-03-01T15:57:48;7.23;;;4.67;;
27031;SDS011;14580;52.918;9.214;2023-03-01T16:00:15;6.83;;;4.53;;
27031;SDS011;14580;52.918;9.214;2023-03-01T16:02:44;5.40;;;4.43;;
27031;SDS011;14580;52.918;9.214;2023-03-01T16:05:17;6.43;;;4.50;;
27031;SDS011;14580;52.918;9.214;2023-03-01T16:07:50;7.53;;;4.20;;
27031;SDS011;14580;52.918;9.214;2023-03-01T16:10:18;6.63;;;4.80;;
27031;SDS011;14580;52.918;9.214;2023-03-01T16:12:45;5.40;;;4.67;;
27031;SDS011;14580;52.918;9.214;2023-03-01T16:15:27;8.53;;;5.10;;
27031;SDS011;14580;52.918;9.214;2023-03-01T16:18:02;7.07;;;4.67;;
27031;SDS011;14580;52.918;9.214;2023-03-01T16:20:35;6.10;;;4.63;;
27031;SDS011;14580;52.918;9.214;2023-03-01T16:23:03;7.97;;;5.03;;
27031;SDS011;14580;52.918;9.214;2023-03-01T16:25:33;5.90;;;4.47;;
27031;SDS011;14580;52.918;9.214;2023-03-01T16:28:00;7.00;;;5.20;;
27031;SDS011;14580;52.918;9.214;2023-03-01T16:30:30;5.27;;;4.33;;
27031;SDS011;14580;52.918;9.214;2023-03-01T16:32:56;7.10;;;5.17;;
27031;SDS011;14580;52.918;9.214;2023-03-01T16:35:23;9.53;;;5.07;;
27031;SDS011;14580;52.918;9.214;2023-03-01T16:37:50;8.87;;;5.20;;
27031;SDS011;14580;52.918;9.214;2023-03-01T16:40:26;9.00;;;5.50;;
27031;SDS011;14580;52.918;9.214;2023-03-01T16:42:55;9.67;;;6.33;;
27031;SDS011;14580;52.918;9.214;2023-03-01T16:45:25;8.23;;;5.77;;
27031;SDS011;14580;52.918;9.214;2023-03-01T16:47:53;7.00;;;5.57;;
27031;SDS011;14580;52.918;9.214;2023-03-01T16:50:19;8.97;;;6.30;;
27031;SDS011;14580;52.918;9.214;2023-03-01T16:52:46;9.27;;;6.07;;
27031;SDS011;14580;52.918;9.214;2023-03-01T16:55:12;8.77;;;6.37;;
27031;SDS011;14580;52.918;9.214;2023-03-01T16:57:39;7.27;;;5.97;;
27031;SDS011;14580;52.918;9.214;2023-03-01T17:00:06;9.63;;;7.40;;
27031;SDS011;14580;52.918;9.214;2023-03-01T17:02:35;11.40;;;6.83;;
27031;SDS011;14580;52.918;9.214;2023-03-01T17:05:02;11.00;;;7.03;;
27031;SDS011;14580;52.918;9.214;2023-03-01T17:07:30;12.93;;;6.67;;
27031;SDS011;14580;52.918;9.214;2023-03-01T17:10:02;12.37;;;7.30;;
27031;SDS011;14580;52.918;9.214;2023-03-01T17:12:33;10.07;;;7.40;;
27031;SDS011;14580;52.918;9.214;2023-03-01T17:15:00;11.97;;;8.30;;
27031;SDS011;14580;52.918;9.214;2023-03-01T17:17:29;13.07;;;8.00;;
27031;SDS011;14580;52.918;9.214;2023-03-01T17:19:56;12.40;;;7.77;;
27031;SDS011;14580;52.918;9.214;2023-03-01T17:22:25;12.67;;;7.87;;
27031;SDS011;14580;52.918;9.214;2023-03-01T17:24:52;12.90;;;8.13;;
27031;SDS011;14580;52.918;9.214;2023-03-01T17:27:19;11.77;;;8.00;;
27031;SDS011;14580;52.918;9.214;2023-03-01T17:29:46;13.40;;;7.83;;
27031;SDS011;14580;52.918;9.214;2023-03-01T17:32:12;11.20;;;7.70;;
27031;SDS011;14580;52.918;9.214;2023-03-01T17:34:39;13.40;;;8.30;;
27031;SDS011;14580;52.918;9.214;2023-03-01T17:37:05;11.60;;;7.83;;
27031;SDS011;14580;52.918;9.214;2023-03-01T17:39:32;15.20;;;8.23;;
27031;SDS011;14580;52.918;9.214;2023-03-01T17:42:00;11.73;;;7.47;;
27031;SDS011;14580;52.918;9.214;2023-03-01T17:44:30;11.30;;;8.00;;
27031;SDS011;14580;52.918;9.214;2023-03-01T17:46:59;13.37;;;8.77;;
27031;SDS011;14580;52.918;9.214;2023-03-01T17:49:27;13.27;;;7.83;;